createdAt,value
2018-04-23T00:00:33.431Z,0
2018-04-23T00:01:34.795Z,0
2018-04-23T00:02:36.153Z,0
2018-04-23T00:03:37.509Z,0
2018-04-23T00:04:38.869Z,0
2018-04-23T00:05:40.251Z,0
2018-04-23T00:06:41.617Z,0
2018-04-23T00:07:42.979Z,0
2018-04-23T00:08:44.344Z,0
2018-04-23T00:09:45.710Z,0
2018-04-23T00:10:47.068Z,0
2018-04-23T00:11:48.431Z,0
2018-04-23T00:12:49.820Z,0
2018-04-23T00:13:51.152Z,0
2018-04-23T00:14:52.523Z,0
2018-04-23T00:15:53.875Z,0
2018-04-23T00:16:55.240Z,0
2018-04-23T00:17:56.603Z,0
2018-04-23T00:18:57.965Z,0
2018-04-23T00:19:59.326Z,0
2018-04-23T00:21:00.690Z,0
2018-04-23T00:22:02.047Z,0
2018-04-23T00:23:03.463Z,0
2018-04-23T00:24:04.782Z,0
2018-04-23T00:25:06.147Z,0
2018-04-23T00:26:07.509Z,0
2018-04-23T00:27:08.870Z,0
2018-04-23T00:28:10.252Z,0
2018-04-23T00:29:11.620Z,0
2018-04-23T00:30:12.976Z,0
2018-04-23T00:31:14.331Z,0
2018-04-23T00:32:15.695Z,0
2018-04-23T00:33:17.053Z,0
2018-04-23T00:34:18.409Z,0
2018-04-23T00:35:19.767Z,0
2018-04-23T00:36:21.130Z,0
2018-04-23T00:37:22.490Z,0
2018-04-23T00:38:23.844Z,0
2018-04-23T00:39:25.254Z,0
2018-04-23T00:40:26.571Z,0
2018-04-23T00:41:27.935Z,0
2018-04-23T00:42:29.293Z,0
2018-04-23T00:43:30.652Z,0
2018-04-23T00:44:32.007Z,0
2018-04-23T00:45:33.374Z,0
2018-04-23T00:46:34.726Z,0
2018-04-23T00:47:36.089Z,0
2018-04-23T00:48:37.448Z,0
2018-04-23T00:49:38.811Z,0
2018-04-23T00:50:40.174Z,0
2018-04-23T00:51:41.539Z,0
2018-04-23T00:52:42.897Z,0
2018-04-23T00:53:44.253Z,0
2018-04-23T00:54:45.617Z,0
2018-04-23T00:55:46.973Z,0
2018-04-23T00:56:48.336Z,0
2018-04-23T00:57:49.703Z,0
2018-04-23T00:58:51.060Z,0
2018-04-23T00:59:52.422Z,0
2018-04-23T01:00:53.782Z,0
2018-04-23T01:01:55.144Z,0
2018-04-23T01:02:56.505Z,0
2018-04-23T01:03:57.857Z,0
2018-04-23T01:04:59.225Z,0
2018-04-23T01:06:00.582Z,0
2018-04-23T01:07:01.939Z,0
2018-04-23T01:08:03.295Z,0
2018-04-23T01:09:04.650Z,0
2018-04-23T01:10:06.014Z,0
2018-04-23T01:11:07.381Z,0
2018-04-23T01:12:08.737Z,0
2018-04-23T01:13:10.091Z,0
2018-04-23T01:14:11.452Z,0
2018-04-23T01:15:12.815Z,0
2018-04-23T01:16:14.169Z,0
2018-04-23T01:17:15.532Z,0
2018-04-23T01:18:16.901Z,0
2018-04-23T01:19:18.256Z,0
2018-04-23T01:20:19.619Z,0
2018-04-23T01:21:20.973Z,0
2018-04-23T01:22:22.337Z,0
2018-04-23T01:23:23.690Z,0
2018-04-23T01:24:25.056Z,0
2018-04-23T01:25:26.408Z,0
2018-04-23T01:26:27.766Z,0
2018-04-23T01:27:29.123Z,0
2018-04-23T01:28:30.485Z,0
2018-04-23T01:29:31.843Z,0
2018-04-23T01:30:33.204Z,0
2018-04-23T01:31:34.570Z,0
2018-04-23T01:32:35.919Z,0
2018-04-23T01:33:37.313Z,0
2018-04-23T01:34:38.668Z,0
2018-04-23T01:35:40.037Z,0
2018-04-23T01:36:41.401Z,0
2018-04-23T01:37:42.758Z,0
2018-04-23T01:38:44.120Z,0
2018-04-23T01:39:45.477Z,0
2018-04-23T01:40:46.842Z,0
2018-04-23T01:41:48.200Z,0
2018-04-23T01:42:49.557Z,0
2018-04-23T01:43:50.914Z,0
2018-04-23T01:44:52.275Z,0
2018-04-23T01:45:53.634Z,0
2018-04-23T01:46:54.991Z,0
2018-04-23T01:47:56.356Z,0
2018-04-23T01:48:57.712Z,0
2018-04-23T01:49:59.067Z,0
2018-04-23T01:51:00.429Z,0
2018-04-23T01:52:01.790Z,0
2018-04-23T01:53:03.156Z,0
2018-04-23T01:54:04.515Z,0
2018-04-23T01:55:05.884Z,0
2018-04-23T01:56:07.237Z,0
2018-04-23T01:57:08.594Z,0
2018-04-23T01:58:10.032Z,0
2018-04-23T01:59:11.432Z,0
2018-04-23T02:00:13.640Z,0
2018-04-23T02:01:14.995Z,0
2018-04-23T02:02:16.357Z,0
2018-04-23T02:03:17.713Z,0
2018-04-23T02:04:19.074Z,0
2018-04-23T02:05:20.433Z,0
2018-04-23T02:06:21.796Z,0
2018-04-23T02:07:23.161Z,0
2018-04-23T02:08:24.527Z,0
2018-04-23T02:09:25.890Z,0
2018-04-23T02:10:27.254Z,0
2018-04-23T02:11:28.615Z,0
2018-04-23T02:12:29.977Z,0
2018-04-23T02:13:31.330Z,0
2018-04-23T02:14:32.695Z,0
2018-04-23T02:15:34.048Z,0
2018-04-23T02:16:35.423Z,0
2018-04-23T02:17:36.784Z,0
2018-04-23T02:18:38.165Z,0
2018-04-23T02:19:39.519Z,0
2018-04-23T02:20:40.879Z,0
2018-04-23T02:21:42.241Z,0
2018-04-23T02:22:43.609Z,0
2018-04-23T02:23:44.962Z,0
2018-04-23T02:24:46.318Z,0
2018-04-23T02:25:47.679Z,0
2018-04-23T02:26:49.038Z,0
2018-04-23T02:27:50.393Z,0
2018-04-23T02:28:51.764Z,0
2018-04-23T02:29:53.127Z,0
2018-04-23T02:30:54.494Z,0
2018-04-23T02:31:55.847Z,0
2018-04-23T02:32:57.207Z,0
2018-04-23T02:33:58.567Z,0
2018-04-23T02:34:59.930Z,0
2018-04-23T02:36:01.283Z,0
2018-04-23T02:37:02.647Z,0
2018-04-23T02:38:04.012Z,0
2018-04-23T02:39:05.373Z,0
2018-04-23T02:40:06.731Z,0
2018-04-23T02:41:08.116Z,0
2018-04-23T02:42:09.472Z,0
2018-04-23T02:43:10.835Z,0
2018-04-23T02:44:12.201Z,0
2018-04-23T02:45:13.559Z,0
2018-04-23T02:46:14.915Z,0
2018-04-23T02:47:16.283Z,0
2018-04-23T02:48:17.627Z,0
2018-04-23T02:49:18.991Z,0
2018-04-23T02:50:20.355Z,0
2018-04-23T02:51:21.715Z,0
2018-04-23T02:52:23.081Z,0
2018-04-23T02:53:24.442Z,0
2018-04-23T02:54:25.814Z,0
2018-04-23T02:55:27.164Z,0
2018-04-23T02:56:28.529Z,0
2018-04-23T02:57:29.887Z,0
2018-04-23T02:58:31.251Z,0
2018-04-23T02:59:32.615Z,0
2018-04-23T03:00:33.990Z,0
2018-04-23T03:01:35.346Z,0
2018-04-23T03:02:36.719Z,0
2018-04-23T03:03:38.076Z,0
2018-04-23T03:04:39.413Z,0
2018-04-23T03:05:40.782Z,0
2018-04-23T03:06:42.138Z,0
2018-04-23T03:07:43.496Z,0
2018-04-23T03:08:44.856Z,0
2018-04-23T03:09:46.213Z,0
2018-04-23T03:10:47.570Z,0
2018-04-23T03:11:48.934Z,0
2018-04-23T03:12:50.295Z,0
2018-04-23T03:13:51.660Z,0
2018-04-23T03:14:53.010Z,0
2018-04-23T03:15:54.376Z,0
2018-04-23T03:16:55.733Z,0
2018-04-23T03:17:57.866Z,0
2018-04-23T03:18:59.226Z,0
2018-04-23T03:20:00.591Z,0
2018-04-23T03:21:01.959Z,0
2018-04-23T03:22:03.320Z,0
2018-04-23T03:23:04.800Z,0
2018-04-23T03:24:06.170Z,0
2018-04-23T03:25:07.537Z,0
2018-04-23T03:26:08.896Z,0
2018-04-23T03:27:10.265Z,0
2018-04-23T03:28:11.629Z,0
2018-04-23T03:29:13.000Z,0
2018-04-23T03:30:14.368Z,0
2018-04-23T03:31:15.719Z,0
2018-04-23T03:32:17.081Z,0
2018-04-23T03:33:18.441Z,0
2018-04-23T03:34:19.797Z,0
2018-04-23T03:35:21.166Z,0
2018-04-23T03:36:22.528Z,0
2018-04-23T03:37:23.885Z,0
2018-04-23T03:38:25.244Z,0
2018-04-23T03:39:26.605Z,0
2018-04-23T03:40:28.000Z,0
2018-04-23T03:41:29.357Z,0
2018-04-23T03:42:30.719Z,0
2018-04-23T03:43:32.079Z,0
2018-04-23T03:44:33.443Z,0
2018-04-23T03:45:34.800Z,0
2018-04-23T03:46:36.159Z,0
2018-04-23T03:47:37.516Z,0
2018-04-23T03:48:38.882Z,0
2018-04-23T03:49:40.268Z,0
2018-04-23T03:50:41.643Z,0
2018-04-23T03:51:42.994Z,0
2018-04-23T03:52:44.361Z,0
2018-04-23T03:53:45.721Z,0
2018-04-23T03:54:47.084Z,0
2018-04-23T03:55:48.449Z,0
2018-04-23T03:56:49.813Z,0
2018-04-23T03:57:51.165Z,0
2018-04-23T03:58:52.525Z,0
2018-04-23T03:59:53.893Z,0
2018-04-23T04:00:55.255Z,0
2018-04-23T04:01:56.620Z,0
2018-04-23T04:02:57.977Z,0
2018-04-23T04:03:59.346Z,0
2018-04-23T04:05:00.708Z,0
2018-04-23T04:06:02.065Z,0
2018-04-23T04:07:03.429Z,0
2018-04-23T04:08:04.786Z,0
2018-04-23T04:09:06.152Z,0
2018-04-23T04:10:07.521Z,5
2018-04-23T04:11:08.879Z,5
2018-04-23T04:12:10.241Z,5
2018-04-23T04:13:11.605Z,5
2018-04-23T04:14:12.967Z,5
2018-04-23T04:15:14.338Z,5
2018-04-23T04:16:15.702Z,11
2018-04-23T04:17:17.058Z,11
2018-04-23T04:18:18.420Z,11
2018-04-23T04:19:19.782Z,11
2018-04-23T04:20:21.143Z,11
2018-04-23T04:21:22.508Z,16
2018-04-23T04:22:23.867Z,16
2018-04-23T04:23:25.232Z,16
2018-04-23T04:24:26.593Z,16
2018-04-23T04:25:27.958Z,22
2018-04-23T04:26:29.315Z,22
2018-04-23T04:27:30.677Z,28
2018-04-23T04:28:32.044Z,28
2018-04-23T04:29:33.410Z,33
2018-04-23T04:30:34.778Z,33
2018-04-23T04:31:36.299Z,39
2018-04-23T04:32:37.666Z,39
2018-04-23T04:33:39.024Z,45
2018-04-23T04:34:40.409Z,45
2018-04-23T04:35:41.808Z,50
2018-04-23T04:36:43.101Z,56
2018-04-23T04:37:44.471Z,56
2018-04-23T04:38:45.827Z,61
2018-04-23T04:39:47.191Z,61
2018-04-23T04:40:48.557Z,67
2018-04-23T04:41:49.918Z,67
2018-04-23T04:42:51.281Z,73
2018-04-23T04:43:52.690Z,73
2018-04-23T04:44:54.012Z,78
2018-04-23T04:45:55.389Z,84
2018-04-23T04:46:56.748Z,84
2018-04-23T04:47:58.106Z,84
2018-04-23T04:48:59.463Z,90
2018-04-23T04:50:00.835Z,95
2018-04-23T04:51:02.206Z,101
2018-04-23T04:52:03.569Z,101
2018-04-23T04:53:04.938Z,106
2018-04-23T04:54:06.307Z,106
2018-04-23T04:55:07.665Z,112
2018-04-23T04:56:09.033Z,118
2018-04-23T04:57:10.392Z,123
2018-04-23T04:58:11.767Z,129
2018-04-23T04:59:13.131Z,135
2018-04-23T05:00:14.503Z,146
2018-04-23T05:01:15.862Z,151
2018-04-23T05:02:17.229Z,151
2018-04-23T05:03:18.611Z,163
2018-04-23T05:04:19.977Z,174
2018-04-23T05:05:21.346Z,185
2018-04-23T05:06:22.707Z,196
2018-04-23T05:07:24.076Z,202
2018-04-23T05:08:25.445Z,213
2018-04-23T05:09:26.817Z,219
2018-04-23T05:10:28.221Z,230
2018-04-23T05:11:29.585Z,236
2018-04-23T05:12:30.946Z,241
2018-04-23T05:13:32.324Z,247
2018-04-23T05:14:33.691Z,253
2018-04-23T05:15:35.065Z,258
2018-04-23T05:16:36.442Z,275
2018-04-23T05:17:37.853Z,286
2018-04-23T05:18:39.216Z,309
2018-04-23T05:19:40.584Z,326
2018-04-23T05:20:41.955Z,331
2018-04-23T05:21:43.319Z,343
2018-04-23T05:22:44.687Z,343
2018-04-23T05:23:46.095Z,326
2018-04-23T05:24:47.439Z,303
2018-04-23T05:25:48.809Z,281
2018-04-23T05:26:50.175Z,270
2018-04-23T05:27:51.543Z,253
2018-04-23T05:28:52.931Z,230
2018-04-23T05:29:54.327Z,219
2018-04-23T05:30:55.670Z,208
2018-04-23T05:31:57.033Z,202
2018-04-23T05:32:58.399Z,196
2018-04-23T05:33:59.764Z,191
2018-04-23T05:35:01.134Z,180
2018-04-23T05:36:02.502Z,174
2018-04-23T05:37:03.863Z,174
2018-04-23T05:38:05.233Z,185
2018-04-23T05:39:06.623Z,196
2018-04-23T05:40:08.031Z,208
2018-04-23T05:41:09.419Z,213
2018-04-23T05:42:10.785Z,219
2018-04-23T05:43:12.214Z,230
2018-04-23T05:44:13.527Z,241
2018-04-23T05:45:14.877Z,258
2018-04-23T05:46:16.245Z,286
2018-04-23T05:47:17.614Z,315
2018-04-23T05:48:19.012Z,331
2018-04-23T05:49:20.381Z,348
2018-04-23T05:50:21.750Z,360
2018-04-23T05:51:23.120Z,382
2018-04-23T05:52:24.490Z,382
2018-04-23T05:53:25.851Z,393
2018-04-23T05:54:27.226Z,405
2018-04-23T05:55:28.602Z,416
2018-04-23T05:56:29.975Z,427
2018-04-23T05:57:31.350Z,433
2018-04-23T05:58:32.721Z,438
2018-04-23T05:59:34.095Z,438
2018-04-23T06:00:35.516Z,410
2018-04-23T06:01:36.900Z,360
2018-04-23T06:02:38.269Z,326
2018-04-23T06:03:39.641Z,315
2018-04-23T06:04:41.010Z,315
2018-04-23T06:05:42.376Z,298
2018-04-23T06:06:43.743Z,264
2018-04-23T06:07:45.115Z,230
2018-04-23T06:08:46.500Z,180
2018-04-23T06:09:47.856Z,129
2018-04-23T06:10:49.217Z,95
2018-04-23T06:11:50.587Z,61
2018-04-23T06:12:51.953Z,33
2018-04-23T06:13:53.324Z,22
2018-04-23T06:14:54.690Z,16
2018-04-23T06:15:56.062Z,11
2018-04-23T06:16:57.426Z,5
2018-04-23T06:17:58.800Z,5
2018-04-23T06:19:00.157Z,11
2018-04-23T06:20:01.521Z,11
2018-04-23T06:21:02.896Z,16
2018-04-23T06:22:04.265Z,16
2018-04-23T06:23:05.647Z,16
2018-04-23T06:24:07.007Z,16
2018-04-23T06:25:08.375Z,22
2018-04-23T06:26:09.744Z,28
2018-04-23T06:27:11.121Z,33
2018-04-23T06:28:12.512Z,39
2018-04-23T06:29:13.850Z,45
2018-04-23T06:30:15.216Z,56
2018-04-23T06:31:16.580Z,73
2018-04-23T06:32:17.939Z,84
2018-04-23T06:33:19.314Z,101
2018-04-23T06:34:20.703Z,112
2018-04-23T06:35:22.035Z,123
2018-04-23T06:36:23.397Z,129
2018-04-23T06:37:24.766Z,129
2018-04-23T06:38:26.130Z,129
2018-04-23T06:39:27.491Z,135
2018-04-23T06:40:28.847Z,140
2018-04-23T06:41:30.221Z,151
2018-04-23T06:42:31.580Z,163
2018-04-23T06:43:32.948Z,174
2018-04-23T06:44:34.428Z,196
2018-04-23T06:45:35.787Z,219
2018-04-23T06:46:37.223Z,241
2018-04-23T06:47:38.585Z,253
2018-04-23T06:48:39.960Z,247
2018-04-23T06:49:41.314Z,236
2018-04-23T06:50:42.693Z,225
2018-04-23T06:51:44.064Z,208
2018-04-23T06:52:45.430Z,191
2018-04-23T06:53:46.809Z,180
2018-04-23T06:54:48.175Z,163
2018-04-23T06:55:49.551Z,151
2018-04-23T06:56:50.905Z,146
2018-04-23T06:57:52.276Z,146
2018-04-23T06:58:53.650Z,146
2018-04-23T06:59:55.015Z,151
2018-04-23T07:00:56.376Z,151
2018-04-23T07:01:57.744Z,146
2018-04-23T07:02:59.117Z,129
2018-04-23T07:04:00.477Z,112
2018-04-23T07:05:01.909Z,106
2018-04-23T07:06:03.208Z,106
2018-04-23T07:07:04.581Z,101
2018-04-23T07:08:05.943Z,95
2018-04-23T07:09:07.317Z,90
2018-04-23T07:10:08.686Z,90
2018-04-23T07:11:10.052Z,95
2018-04-23T07:12:11.410Z,106
2018-04-23T07:13:12.781Z,123
2018-04-23T07:14:14.138Z,151
2018-04-23T07:15:15.510Z,191
2018-04-23T07:16:16.882Z,241
2018-04-23T07:17:18.249Z,303
2018-04-23T07:18:19.609Z,354
2018-04-23T07:19:20.978Z,416
2018-04-23T07:20:22.340Z,466
2018-04-23T07:21:23.715Z,489
2018-04-23T07:22:25.079Z,450
2018-04-23T07:23:26.438Z,371
2018-04-23T07:24:27.801Z,281
2018-04-23T07:25:29.172Z,219
2018-04-23T07:26:30.533Z,191
2018-04-23T07:27:31.909Z,168
2018-04-23T07:28:33.263Z,146
2018-04-23T07:29:34.633Z,129
2018-04-23T07:30:36.012Z,112
2018-04-23T07:31:37.371Z,95
2018-04-23T07:32:38.736Z,90
2018-04-23T07:33:40.102Z,84
2018-04-23T07:34:41.470Z,78
2018-04-23T07:35:42.824Z,78
2018-04-23T07:36:44.191Z,84
2018-04-23T07:37:45.553Z,95
2018-04-23T07:38:46.922Z,106
2018-04-23T07:39:48.284Z,123
2018-04-23T07:40:49.685Z,135
2018-04-23T07:41:51.013Z,146
2018-04-23T07:42:52.368Z,151
2018-04-23T07:43:53.737Z,163
2018-04-23T07:44:55.109Z,180
2018-04-23T07:45:56.467Z,185
2018-04-23T07:46:57.842Z,196
2018-04-23T07:47:59.209Z,196
2018-04-23T07:49:00.571Z,202
2018-04-23T07:50:01.942Z,208
2018-04-23T07:51:03.309Z,230
2018-04-23T07:52:04.671Z,264
2018-04-23T07:53:06.041Z,303
2018-04-23T07:54:07.431Z,331
2018-04-23T07:55:08.797Z,365
2018-04-23T07:56:10.162Z,393
2018-04-23T07:57:11.532Z,427
2018-04-23T07:58:12.890Z,461
2018-04-23T07:59:14.260Z,483
2018-04-23T08:00:15.620Z,489
2018-04-23T08:01:16.984Z,489
2018-04-23T08:02:18.352Z,483
2018-04-23T08:03:19.722Z,472
2018-04-23T08:04:21.081Z,455
2018-04-23T08:05:22.445Z,450
2018-04-23T08:06:23.813Z,438
2018-04-23T08:07:25.178Z,427
2018-04-23T08:08:26.557Z,416
2018-04-23T08:09:27.929Z,405
2018-04-23T08:10:29.290Z,399
2018-04-23T08:11:30.660Z,388
2018-04-23T08:12:32.024Z,376
2018-04-23T08:13:33.396Z,360
2018-04-23T08:14:34.757Z,343
2018-04-23T08:15:36.137Z,326
2018-04-23T08:16:37.535Z,309
2018-04-23T08:17:38.908Z,303
2018-04-23T08:18:40.270Z,303
2018-04-23T08:19:41.696Z,309
2018-04-23T08:20:43.004Z,320
2018-04-23T08:21:44.375Z,337
2018-04-23T08:22:45.740Z,337
2018-04-23T08:23:47.118Z,331
2018-04-23T08:24:50.385Z,331
2018-04-23T08:25:51.754Z,331
2018-04-23T08:26:53.136Z,331
2018-04-23T08:27:54.504Z,326
2018-04-23T08:28:55.871Z,315
2018-04-23T08:29:57.240Z,303
2018-04-23T08:30:58.615Z,298
2018-04-23T08:31:59.991Z,298
2018-04-23T08:33:01.341Z,315
2018-04-23T08:34:02.707Z,326
2018-04-23T08:35:04.091Z,348
2018-04-23T08:36:05.450Z,371
2018-04-23T08:37:06.817Z,382
2018-04-23T08:38:08.184Z,393
2018-04-23T08:39:09.552Z,388
2018-04-23T08:40:10.921Z,382
2018-04-23T08:41:12.284Z,371
2018-04-23T08:42:13.657Z,371
2018-04-23T08:43:15.022Z,399
2018-04-23T08:44:16.383Z,433
2018-04-23T08:45:17.742Z,472
2018-04-23T08:46:19.113Z,523
2018-04-23T08:47:20.662Z,556
2018-04-23T08:48:21.798Z,568
2018-04-23T08:49:23.167Z,551
2018-04-23T08:50:24.547Z,534
2018-04-23T08:51:25.897Z,523
2018-04-23T08:52:27.261Z,528
2018-04-23T08:53:28.630Z,545
2018-04-23T08:54:29.995Z,579
2018-04-23T08:55:31.358Z,624
2018-04-23T08:56:32.730Z,669
2018-04-23T08:57:34.094Z,725
2018-04-23T08:58:35.454Z,770
2018-04-23T08:59:36.818Z,826
2018-04-23T09:00:38.258Z,877
2018-04-23T09:01:39.629Z,922
2018-04-23T09:02:40.988Z,911
2018-04-23T09:03:42.357Z,871
2018-04-23T09:04:43.727Z,821
2018-04-23T09:05:45.095Z,804
2018-04-23T09:06:46.454Z,821
2018-04-23T09:07:47.825Z,894
2018-04-23T09:08:49.199Z,1040
2018-04-23T09:09:50.571Z,1113
2018-04-23T09:10:51.935Z,1198
2018-04-23T09:11:53.321Z,1271
2018-04-23T09:12:54.699Z,1260
2018-04-23T09:13:56.084Z,1220
2018-04-23T09:14:57.452Z,1186
2018-04-23T09:15:58.813Z,1186
2018-04-23T09:17:00.183Z,1321
2018-04-23T09:18:01.776Z,1698
2018-04-23T09:19:03.144Z,1873
2018-04-23T09:20:04.507Z,1946
2018-04-23T09:21:05.893Z,2131
2018-04-23T09:22:07.261Z,2075
2018-04-23T09:23:08.673Z,1878
2018-04-23T09:24:10.042Z,1636
2018-04-23T09:25:11.410Z,1350
2018-04-23T09:26:12.780Z,1265
2018-04-23T09:27:14.152Z,1209
2018-04-23T09:28:15.524Z,1181
2018-04-23T09:29:16.898Z,1248
2018-04-23T09:30:18.265Z,1743
2018-04-23T09:31:19.642Z,1524
2018-04-23T09:32:21.017Z,1366
2018-04-23T09:33:22.390Z,1985
2018-04-23T09:34:23.771Z,1861
2018-04-23T09:35:25.146Z,2036
2018-04-23T09:36:26.515Z,2098
2018-04-23T09:37:27.884Z,2238
2018-04-23T09:38:29.258Z,2475
2018-04-23T09:39:30.632Z,2497
2018-04-23T09:40:32.011Z,2418
2018-04-23T09:41:33.387Z,2435
2018-04-23T09:42:34.756Z,2576
2018-04-23T09:43:36.151Z,2750
2018-04-23T09:44:37.561Z,2745
2018-04-23T09:45:38.939Z,2199
2018-04-23T09:46:40.322Z,2531
2018-04-23T09:47:41.705Z,2626
2018-04-23T09:48:43.077Z,2840
2018-04-23T09:49:44.455Z,2188
2018-04-23T09:50:45.829Z,2424
2018-04-23T09:51:47.206Z,2424
2018-04-23T09:52:48.598Z,2868
2018-04-23T09:53:49.975Z,1231
2018-04-23T09:54:51.348Z,1428
2018-04-23T09:55:52.722Z,2863
2018-04-23T09:56:54.090Z,2143
2018-04-23T09:57:55.499Z,2970
2018-04-23T09:58:56.892Z,1710
2018-04-23T09:59:58.258Z,1631
2018-04-23T10:00:59.643Z,2756
2018-04-23T10:02:01.021Z,2908
2018-04-23T10:03:02.437Z,2823
2018-04-23T10:04:03.813Z,2913
2018-04-23T10:05:05.865Z,2621
2018-04-23T10:06:07.328Z,2818
2018-04-23T10:07:08.651Z,2790
2018-04-23T10:08:10.027Z,2761
2018-04-23T10:09:11.411Z,2981
2018-04-23T10:10:12.787Z,3037
2018-04-23T10:11:14.168Z,2908
2018-04-23T10:12:15.556Z,2919
2018-04-23T10:13:16.936Z,2930
2018-04-23T10:14:18.315Z,3065
2018-04-23T10:15:19.691Z,3206
2018-04-23T10:16:21.078Z,3127
2018-04-23T10:17:22.470Z,3105
2018-04-23T10:18:23.850Z,3099
2018-04-23T10:19:25.232Z,3251
2018-04-23T10:20:26.618Z,3487
2018-04-23T10:21:28.002Z,3622
2018-04-23T10:22:29.380Z,2773
2018-04-23T10:23:30.769Z,2818
2018-04-23T10:24:32.150Z,1653
2018-04-23T10:25:33.528Z,1822
2018-04-23T10:26:34.916Z,3228
2018-04-23T10:27:36.296Z,2480
2018-04-23T10:28:37.680Z,2160
2018-04-23T10:29:39.062Z,1726
2018-04-23T10:30:40.453Z,2261
2018-04-23T10:31:41.825Z,2739
2018-04-23T10:32:43.213Z,1614
2018-04-23T10:33:44.599Z,1738
2018-04-23T10:34:45.982Z,1490
2018-04-23T10:35:47.365Z,1378
2018-04-23T10:36:48.751Z,1760
2018-04-23T10:37:50.141Z,1856
2018-04-23T10:38:51.538Z,1603
2018-04-23T10:39:52.921Z,2002
2018-04-23T10:40:54.382Z,1856
2018-04-23T10:41:55.753Z,1670
2018-04-23T10:42:57.142Z,1473
2018-04-23T10:43:58.525Z,1462
2018-04-23T10:44:59.910Z,1625
2018-04-23T10:46:01.291Z,1681
2018-04-23T10:47:02.660Z,1434
2018-04-23T10:48:04.050Z,1372
2018-04-23T10:49:05.498Z,1248
2018-04-23T10:50:06.899Z,1254
2018-04-23T10:51:08.345Z,1220
2018-04-23T10:52:09.671Z,1226
2018-04-23T10:53:11.044Z,1361
2018-04-23T10:54:12.419Z,1507
2018-04-23T10:55:13.797Z,1361
2018-04-23T10:56:15.187Z,1890
2018-04-23T10:57:16.559Z,1496
2018-04-23T10:58:17.966Z,1985
2018-04-23T10:59:19.346Z,2041
2018-04-23T11:00:20.735Z,2154
2018-04-23T11:01:22.098Z,1575
2018-04-23T11:02:23.474Z,1091
2018-04-23T11:03:24.851Z,1040
2018-04-23T11:04:26.240Z,1091
2018-04-23T11:05:27.620Z,1558
2018-04-23T11:06:29.025Z,1985
2018-04-23T11:07:30.400Z,2165
2018-04-23T11:08:31.774Z,1839
2018-04-23T11:09:33.150Z,2480
2018-04-23T11:10:34.527Z,2334
2018-04-23T11:11:36.262Z,1991
2018-04-23T11:12:37.646Z,2548
2018-04-23T11:13:39.021Z,2002
2018-04-23T11:14:40.401Z,1372
2018-04-23T11:15:41.780Z,1271
2018-04-23T11:16:43.148Z,1288
2018-04-23T11:17:44.527Z,1445
2018-04-23T11:18:45.916Z,1558
2018-04-23T11:19:47.290Z,1625
2018-04-23T11:20:48.677Z,1653
2018-04-23T11:21:50.049Z,1749
2018-04-23T11:22:51.429Z,1811
2018-04-23T11:23:52.812Z,1681
2018-04-23T11:24:54.189Z,1355
2018-04-23T11:25:55.573Z,1316
2018-04-23T11:26:56.965Z,1125
2018-04-23T11:27:58.331Z,1074
2018-04-23T11:28:59.704Z,1102
2018-04-23T11:30:01.083Z,1175
2018-04-23T11:31:02.457Z,1186
2018-04-23T11:32:03.838Z,1125
2018-04-23T11:33:05.212Z,1035
2018-04-23T11:34:06.657Z,967
2018-04-23T11:35:08.034Z,956
2018-04-23T11:36:09.419Z,883
2018-04-23T11:37:10.801Z,781
2018-04-23T11:38:12.176Z,703
2018-04-23T11:39:13.555Z,652
2018-04-23T11:40:14.924Z,630
2018-04-23T11:41:16.317Z,630
2018-04-23T11:42:17.681Z,635
2018-04-23T11:43:19.072Z,641
2018-04-23T11:44:20.433Z,635
2018-04-23T11:45:21.822Z,675
2018-04-23T11:46:23.200Z,686
2018-04-23T11:47:24.579Z,680
2018-04-23T11:48:25.948Z,736
2018-04-23T11:49:27.324Z,860
2018-04-23T11:50:28.701Z,950
2018-04-23T11:51:30.082Z,1096
2018-04-23T11:52:31.459Z,1215
2018-04-23T11:53:32.845Z,1260
2018-04-23T11:54:34.218Z,1260
2018-04-23T11:55:36.406Z,1231
2018-04-23T11:56:37.745Z,1271
2018-04-23T11:57:39.121Z,1293
2018-04-23T11:58:40.488Z,1333
2018-04-23T11:59:41.861Z,1468
2018-04-23T12:00:43.246Z,1771
2018-04-23T12:01:44.625Z,1794
2018-04-23T12:02:46.011Z,1670
2018-04-23T12:03:47.383Z,1586
2018-04-23T12:04:48.766Z,1597
2018-04-23T12:05:50.138Z,1541
2018-04-23T12:06:51.507Z,1507
2018-04-23T12:07:52.883Z,1434
2018-04-23T12:08:54.255Z,1366
2018-04-23T12:09:55.634Z,1383
2018-04-23T12:10:57.018Z,1524
2018-04-23T12:11:58.382Z,1546
2018-04-23T12:12:59.760Z,1558
2018-04-23T12:14:01.143Z,1580
2018-04-23T12:15:02.522Z,1755
2018-04-23T12:16:03.901Z,1828
2018-04-23T12:17:06.080Z,1760
2018-04-23T12:18:07.476Z,1704
2018-04-23T12:19:08.857Z,1614
2018-04-23T12:20:10.236Z,1591
2018-04-23T12:21:11.609Z,1468
2018-04-23T12:22:12.984Z,1372
2018-04-23T12:23:14.903Z,1395
2018-04-23T12:24:15.695Z,1344
2018-04-23T12:25:17.077Z,1288
2018-04-23T12:26:18.479Z,1186
2018-04-23T12:27:19.855Z,1299
2018-04-23T12:28:21.230Z,1451
2018-04-23T12:29:22.612Z,1608
2018-04-23T12:30:23.982Z,1473
2018-04-23T12:31:25.406Z,1620
2018-04-23T12:32:26.745Z,1693
2018-04-23T12:33:28.118Z,1631
2018-04-23T12:34:29.487Z,1693
2018-04-23T12:35:30.866Z,1974
2018-04-23T12:36:32.245Z,2047
2018-04-23T12:37:33.662Z,1912
2018-04-23T12:38:35.040Z,1636
2018-04-23T12:39:36.415Z,1676
2018-04-23T12:40:37.804Z,1563
2018-04-23T12:41:39.173Z,1794
2018-04-23T12:42:40.553Z,1653
2018-04-23T12:43:41.940Z,2221
2018-04-23T12:44:43.321Z,2289
2018-04-23T12:45:44.703Z,2205
2018-04-23T12:46:46.096Z,2154
2018-04-23T12:47:47.467Z,2120
2018-04-23T12:48:48.837Z,2086
2018-04-23T12:49:50.217Z,2047
2018-04-23T12:50:51.596Z,1738
2018-04-23T12:51:52.977Z,1710
2018-04-23T12:52:54.372Z,1411
2018-04-23T12:53:55.747Z,1271
2018-04-23T12:54:57.144Z,1220
2018-04-23T12:55:58.531Z,1411
2018-04-23T12:56:59.912Z,1805
2018-04-23T12:58:01.293Z,1445
2018-04-23T12:59:02.680Z,1310
2018-04-23T13:00:04.059Z,2227
2018-04-23T13:01:05.437Z,1310
2018-04-23T13:02:06.809Z,1108
2018-04-23T13:03:08.312Z,1063
2018-04-23T13:04:09.689Z,950
2018-04-23T13:05:11.080Z,866
2018-04-23T13:06:12.465Z,731
2018-04-23T13:07:13.845Z,714
2018-04-23T13:08:15.224Z,877
2018-04-23T13:09:16.606Z,1170
2018-04-23T13:10:17.991Z,1856
2018-04-23T13:11:19.354Z,1963
2018-04-23T13:12:20.776Z,1625
2018-04-23T13:13:22.144Z,1237
2018-04-23T13:14:23.537Z,1687
2018-04-23T13:15:24.929Z,1158
2018-04-23T13:16:26.316Z,1226
2018-04-23T13:17:27.726Z,1254
2018-04-23T13:18:29.148Z,888
2018-04-23T13:19:30.457Z,787
2018-04-23T13:20:31.833Z,731
2018-04-23T13:21:33.212Z,798
2018-04-23T13:22:34.598Z,1018
2018-04-23T13:23:36.757Z,1046
2018-04-23T13:24:38.224Z,1282
2018-04-23T13:25:39.597Z,1366
2018-04-23T13:26:40.977Z,1963
2018-04-23T13:27:42.355Z,1901
2018-04-23T13:28:43.735Z,1468
2018-04-23T13:29:45.113Z,1620
2018-04-23T13:30:46.495Z,1220
2018-04-23T13:31:47.878Z,1186
2018-04-23T13:32:49.258Z,1096
2018-04-23T13:33:50.627Z,1209
2018-04-23T13:34:52.012Z,1620
2018-04-23T13:35:53.393Z,1783
2018-04-23T13:36:54.777Z,1755
2018-04-23T13:37:56.145Z,1653
2018-04-23T13:38:57.530Z,1890
2018-04-23T13:39:58.909Z,1603
2018-04-23T13:41:00.276Z,2036
2018-04-23T13:42:01.659Z,2120
2018-04-23T13:43:03.039Z,2064
2018-04-23T13:44:04.414Z,2295
2018-04-23T13:45:05.798Z,2238
2018-04-23T13:46:07.174Z,1895
2018-04-23T13:47:08.569Z,1479
2018-04-23T13:48:09.964Z,1974
2018-04-23T13:49:11.343Z,2041
2018-04-23T13:50:12.722Z,1940
2018-04-23T13:51:14.109Z,2008
2018-04-23T13:52:15.523Z,1957
2018-04-23T13:53:16.898Z,1912
2018-04-23T13:54:18.285Z,1760
2018-04-23T13:55:19.659Z,1597
2018-04-23T13:56:21.048Z,1006
2018-04-23T13:57:22.424Z,973
2018-04-23T13:58:23.830Z,894
2018-04-23T13:59:25.210Z,1479
2018-04-23T14:00:26.599Z,1558
2018-04-23T14:01:28.037Z,1687
2018-04-23T14:02:29.353Z,1485
2018-04-23T14:03:30.737Z,1507
2018-04-23T14:04:32.120Z,1575
2018-04-23T14:05:33.496Z,1462
2018-04-23T14:06:34.880Z,1181
2018-04-23T14:07:36.253Z,990
2018-04-23T14:08:37.672Z,978
2018-04-23T14:09:39.061Z,922
2018-04-23T14:10:40.433Z,855
2018-04-23T14:11:41.813Z,900
2018-04-23T14:12:43.193Z,900
2018-04-23T14:13:44.571Z,956
2018-04-23T14:14:45.942Z,967
2018-04-23T14:15:47.320Z,984